sensor_id;sensor_type;location;lat;lon;timestamp;temperature;humidity
7411;DHT22;3747;48.628;9.058;2024-03-02T00:01:10;4.20;99.90
7411;DHT22;3747;48.628;9.058;2024-03-02T00:03:37;4.20;99.90
7411;DHT22;3747;48.628;9.058;2024-03-02T00:06:04;4.30;99.90
7411;DHT22;3747;48.628;9.058;2024-03-02T00:08:31;4.30;99.90
7411;DHT22;3747;48.628;9.058;2024-03-02T00:10:58;4.30;99.90
7411;DHT22;3747;48.628;9.058;2024-03-02T00:13:26;4.30;99.90
7411;DHT22;3747;48.628;9.058;2024-03-02T00:15:55;4.30;99.90
7411;DHT22;3747;48.628;9.058;2024-03-02T00:18:25;4.40;99.90
7411;DHT22;3747;48.628;9.058;2024-03-02T00:20:55;4.30;99.90
7411;DHT22;3747;48.628;9.058;2024-03-02T00:23:23;4.30;99.90
7411;DHT22;3747;48.628;9.058;2024-03-02T00:25:52;4.30;99.90
7411;DHT22;3747;48.628;9.058;2024-03-02T00:28:20;4.30;99.90
7411;DHT22;3747;48.628;9.058;2024-03-02T00:31:01;4.40;99.90
7411;DHT22;3747;48.628;9.058;2024-03-02T00:33:31;4.40;99.90
7411;DHT22;3747;48.628;9.058;2024-03-02T00:35:58;4.40;99.90
7411;DHT22;3747;48.628;9.058;2024-03-02T00:38:25;4.30;99.90
7411;DHT22;3747;48.628;9.058;2024-03-02T00:40:53;4.20;99.90
7411;DHT22;3747;48.628;9.058;2024-03-02T00:43:43;4.10;99.90
7411;DHT22;3747;48.628;9.058;2024-03-02T00:46:13;4.10;99.90
7411;DHT22;3747;48.628;9.058;2024-03-02T00:48:48;4.10;99.90
7411;DHT22;3747;48.628;9.058;2024-03-02T00:51:17;4.20;99.90
7411;DHT22;3747;48.628;9.058;2024-03-02T00:53:44;4.10;99.90
7411;DHT22;3747;48.628;9.058;2024-03-02T00:56:11;4.20;99.90
7411;DHT22;3747;48.628;9.058;2024-03-02T00:58:39;4.20;99.90
7411;DHT22;3747;48.628;9.058;2024-03-02T01:01:05;4.10;99.90
7411;DHT22;3747;48.628;9.058;2024-03-02T01:03:34;4.10;99.90
7411;DHT22;3747;48.628;9.058;2024-03-02T01:05:59;4.00;99.90
7411;DHT22;3747;48.628;9.058;2024-03-02T01:08:26;3.90;99.90
7411;DHT22;3747;48.628;9.058;2024-03-02T01:10:53;3.80;99.90
7411;DHT22;3747;48.628;9.058;2024-03-02T01:13:20;3.70;99.90
7411;DHT22;3747;48.628;9.058;2024-03-02T01:15:47;3.60;99.90
7411;DHT22;3747;48.628;9.058;2024-03-02T01:18:14;3.50;99.90
7411;DHT22;3747;48.628;9.058;2024-03-02T01:20:42;3.50;99.90
7411;DHT22;3747;48.628;9.058;2024-03-02T01:23:09;3.40;99.90
7411;DHT22;3747;48.628;9.058;2024-03-02T01:25:35;3.30;99.90
7411;DHT22;3747;48.628;9.058;2024-03-02T01:28:02;3.20;99.90
7411;DHT22;3747;48.628;9.058;2024-03-02T01:30:29;3.10;99.90
7411;DHT22;3747;48.628;9.058;2024-03-02T01:32:56;3.00;99.90
7411;DHT22;3747;48.628;9.058;2024-03-02T01:35:24;2.90;99.90
7411;DHT22;3747;48.628;9.058;2024-03-02T01:37:53;2.90;99.90
7411;DHT22;3747;48.628;9.058;2024-03-02T01:40:20;3.00;99.90
7411;DHT22;3747;48.628;9.058;2024-03-02T01:42:47;3.00;99.90
7411;DHT22;3747;48.628;9.058;2024-03-02T01:45:13;2.90;99.90
7411;DHT22;3747;48.628;9.058;2024-03-02T01:47:40;2.90;99.90
7411;DHT22;3747;48.628;9.058;2024-03-02T01:50:07;3.00;99.90
7411;DHT22;3747;48.628;9.058;2024-03-02T01:52:37;2.90;99.90
7411;DHT22;3747;48.628;9.058;2024-03-02T01:55:05;3.10;99.90
7411;DHT22;3747;48.628;9.058;2024-03-02T01:57:32;2.90;99.90
7411;DHT22;3747;48.628;9.058;2024-03-02T02:00:00;2.80;99.90
7411;DHT22;3747;48.628;9.058;2024-03-02T02:02:27;2.70;99.90
7411;DHT22;3747;48.628;9.058;2024-03-02T02:04:54;2.70;99.90
7411;DHT22;3747;48.628;9.058;2024-03-02T02:07:21;2.50;99.90
7411;DHT22;3747;48.628;9.058;2024-03-02T02:09:48;2.40;99.90
7411;DHT22;3747;48.628;9.058;2024-03-02T02:12:16;2.40;99.90
7411;DHT22;3747;48.628;9.058;2024-03-02T02:14:47;2.30;99.90
7411;DHT22;3747;48.628;9.058;2024-03-02T02:17:14;2.30;99.90
7411;DHT22;3747;48.628;9.058;2024-03-02T02:19:41;2.30;99.90
7411;DHT22;3747;48.628;9.058;2024-03-02T02:22:09;2.50;99.90
7411;DHT22;3747;48.628;9.058;2024-03-02T02:24:36;2.70;99.90
7411;DHT22;3747;48.628;9.058;2024-03-02T02:27:05;2.80;99.90
7411;DHT22;3747;48.628;9.058;2024-03-02T02:29:32;2.90;99.90
7411;DHT22;3747;48.628;9.058;2024-03-02T02:31:59;2.80;99.90
7411;DHT22;3747;48.628;9.058;2024-03-02T02:34:25;2.70;99.90
7411;DHT22;3747;48.628;9.058;2024-03-02T02:36:52;2.50;99.90
7411;DHT22;3747;48.628;9.058;2024-03-02T02:39:22;2.40;99.90
7411;DHT22;3747;48.628;9.058;2024-03-02T02:41:49;2.40;99.90
7411;DHT22;3747;48.628;9.058;2024-03-02T02:44:16;2.40;99.90
7411;DHT22;3747;48.628;9.058;2024-03-02T02:46:42;2.30;99.90
7411;DHT22;3747;48.628;9.058;2024-03-02T02:49:09;2.30;99.90
7411;DHT22;3747;48.628;9.058;2024-03-02T02:51:36;2.30;99.90
7411;DHT22;3747;48.628;9.058;2024-03-02T02:54:02;2.30;99.90
7411;DHT22;3747;48.628;9.058;2024-03-02T02:56:30;2.40;99.90
7411;DHT22;3747;48.628;9.058;2024-03-02T02:58:57;2.40;99.90
7411;DHT22;3747;48.628;9.058;2024-03-02T03:01:24;2.50;99.90
7411;DHT22;3747;48.628;9.058;2024-03-02T03:03:51;2.60;99.90
7411;DHT22;3747;48.628;9.058;2024-03-02T03:06:17;2.70;99.90
7411;DHT22;3747;48.628;9.058;2024-03-02T03:08:44;2.80;99.90
7411;DHT22;3747;48.628;9.058;2024-03-02T03:11:11;2.90;99.90
7411;DHT22;3747;48.628;9.058;2024-03-02T03:13:39;2.90;99.90
7411;DHT22;3747;48.628;9.058;2024-03-02T03:16:05;2.90;99.90
7411;DHT22;3747;48.628;9.058;2024-03-02T03:18:32;3.00;99.90
7411;DHT22;3747;48.628;9.058;2024-03-02T03:20:59;3.00;99.90
7411;DHT22;3747;48.628;9.058;2024-03-02T03:23:26;3.10;99.90
7411;DHT22;3747;48.628;9.058;2024-03-02T03:25:52;3.00;99.90
7411;DHT22;3747;48.628;9.058;2024-03-02T03:28:19;2.80;99.90
7411;DHT22;3747;48.628;9.058;2024-03-02T03:30:47;2.70;99.90
7411;DHT22;3747;48.628;9.058;2024-03-02T03:33:14;2.60;99.90
7411;DHT22;3747;48.628;9.058;2024-03-02T03:35:40;2.70;99.90
7411;DHT22;3747;48.628;9.058;2024-03-02T03:38:07;2.80;99.90
7411;DHT22;3747;48.628;9.058;2024-03-02T03:40:34;2.80;99.90
7411;DHT22;3747;48.628;9.058;2024-03-02T03:43:00;2.70;99.90
7411;DHT22;3747;48.628;9.058;2024-03-02T03:45:27;2.70;99.90
7411;DHT22;3747;48.628;9.058;2024-03-02T03:47:57;2.80;99.90
7411;DHT22;3747;48.628;9.058;2024-03-02T03:50:24;2.90;99.90
7411;DHT22;3747;48.628;9.058;2024-03-02T03:52:50;2.90;99.90
7411;DHT22;3747;48.628;9.058;2024-03-02T03:55:17;2.80;99.90
7411;DHT22;3747;48.628;9.058;2024-03-02T03:57:44;2.60;99.90
7411;DHT22;3747;48.628;9.058;2024-03-02T04:00:11;2.50;99.90
7411;DHT22;3747;48.628;9.058;2024-03-02T04:02:38;2.40;99.90
7411;DHT22;3747;48.628;9.058;2024-03-02T04:05:07;2.20;99.90
7411;DHT22;3747;48.628;9.058;2024-03-02T04:07:36;2.10;99.90
7411;DHT22;3747;48.628;9.058;2024-03-02T04:10:07;2.10;99.90
7411;DHT22;3747;48.628;9.058;2024-03-02T04:12:35;2.10;99.90
7411;DHT22;3747;48.628;9.058;2024-03-02T04:15:02;2.30;99.90
7411;DHT22;3747;48.628;9.058;2024-03-02T04:17:30;2.50;99.90
7411;DHT22;3747;48.628;9.058;2024-03-02T04:19:57;2.50;99.90
7411;DHT22;3747;48.628;9.058;2024-03-02T04:22:26;2.40;99.90
7411;DHT22;3747;48.628;9.058;2024-03-02T04:24:52;2.20;99.90
7411;DHT22;3747;48.628;9.058;2024-03-02T04:27:19;2.10;99.90
7411;DHT22;3747;48.628;9.058;2024-03-02T04:29:46;1.90;99.90
7411;DHT22;3747;48.628;9.058;2024-03-02T04:32:12;1.70;99.90
7411;DHT22;3747;48.628;9.058;2024-03-02T04:34:39;1.60;99.90
7411;DHT22;3747;48.628;9.058;2024-03-02T04:37:06;1.50;99.90
7411;DHT22;3747;48.628;9.058;2024-03-02T04:39:35;1.40;99.90
7411;DHT22;3747;48.628;9.058;2024-03-02T04:42:02;1.30;99.90
7411;DHT22;3747;48.628;9.058;2024-03-02T04:44:29;1.30;99.90
7411;DHT22;3747;48.628;9.058;2024-03-02T04:46:56;1.20;99.90
7411;DHT22;3747;48.628;9.058;2024-03-02T04:49:23;1.20;99.90
7411;DHT22;3747;48.628;9.058;2024-03-02T04:51:50;1.30;99.90
7411;DHT22;3747;48.628;9.058;2024-03-02T04:54:16;1.30;99.90
7411;DHT22;3747;48.628;9.058;2024-03-02T04:56:44;1.30;99.90
7411;DHT22;3747;48.628;9.058;2024-03-02T04:59:15;1.40;99.90
7411;DHT22;3747;48.628;9.058;2024-03-02T05:01:42;1.50;99.90
7411;DHT22;3747;48.628;9.058;2024-03-02T05:04:09;1.40;99.90
7411;DHT22;3747;48.628;9.058;2024-03-02T05:06:37;1.50;99.90
7411;DHT22;3747;48.628;9.058;2024-03-02T05:09:03;1.50;99.90
7411;DHT22;3747;48.628;9.058;2024-03-02T05:11:30;1.50;99.90
7411;DHT22;3747;48.628;9.058;2024-03-02T05:14:29;1.40;99.90
7411;DHT22;3747;48.628;9.058;2024-03-02T05:16:57;1.40;99.90
7411;DHT22;3747;48.628;9.058;2024-03-02T05:19:24;1.50;99.90
7411;DHT22;3747;48.628;9.058;2024-03-02T05:21:50;1.60;99.90
7411;DHT22;3747;48.628;9.058;2024-03-02T05:24:17;1.80;99.90
7411;DHT22;3747;48.628;9.058;2024-03-02T05:26:44;1.80;99.90
7411;DHT22;3747;48.628;9.058;2024-03-02T05:29:11;1.70;99.90
7411;DHT22;3747;48.628;9.058;2024-03-02T05:31:39;1.60;99.90
7411;DHT22;3747;48.628;9.058;2024-03-02T05:34:06;1.50;99.90
7411;DHT22;3747;48.628;9.058;2024-03-02T05:36:32;1.50;99.90
7411;DHT22;3747;48.628;9.058;2024-03-02T05:38:59;1.50;99.90
7411;DHT22;3747;48.628;9.058;2024-03-02T05:41:26;1.60;99.90
7411;DHT22;3747;48.628;9.058;2024-03-02T05:43:53;1.60;99.90
7411;DHT22;3747;48.628;9.058;2024-03-02T05:46:19;1.60;99.90
7411;DHT22;3747;48.628;9.058;2024-03-02T05:48:48;1.60;99.90
7411;DHT22;3747;48.628;9.058;2024-03-02T05:51:15;1.70;99.90
7411;DHT22;3747;48.628;9.058;2024-03-02T05:53:42;1.80;99.90
7411;DHT22;3747;48.628;9.058;2024-03-02T05:56:08;1.80;99.90
7411;DHT22;3747;48.628;9.058;2024-03-02T05:58:35;2.00;99.90
7411;DHT22;3747;48.628;9.058;2024-03-02T06:01:15;2.20;99.90
7411;DHT22;3747;48.628;9.058;2024-03-02T06:03:42;2.30;99.90
7411;DHT22;3747;48.628;9.058;2024-03-02T06:06:35;2.50;99.90
7411;DHT22;3747;48.628;9.058;2024-03-02T06:09:03;2.60;99.90
7411;DHT22;3747;48.628;9.058;2024-03-02T06:11:32;2.50;99.90
7411;DHT22;3747;48.628;9.058;2024-03-02T06:13:59;2.50;99.90
7411;DHT22;3747;48.628;9.058;2024-03-02T06:16:25;2.50;99.90
7411;DHT22;3747;48.628;9.058;2024-03-02T06:18:52;2.40;99.90
7411;DHT22;3747;48.628;9.058;2024-03-02T06:21:19;2.30;99.90
7411;DHT22;3747;48.628;9.058;2024-03-02T06:23:47;2.30;99.90
7411;DHT22;3747;48.628;9.058;2024-03-02T06:26:14;2.00;99.90
7411;DHT22;3747;48.628;9.058;2024-03-02T06:28:41;1.90;99.90
7411;DHT22;3747;48.628;9.058;2024-03-02T06:31:08;2.00;99.90
7411;DHT22;3747;48.628;9.058;2024-03-02T06:33:35;2.10;99.90
7411;DHT22;3747;48.628;9.058;2024-03-02T06:36:02;2.40;99.90
7411;DHT22;3747;48.628;9.058;2024-03-02T06:38:28;2.60;99.90
7411;DHT22;3747;48.628;9.058;2024-03-02T06:40:58;2.80;99.90
7411;DHT22;3747;48.628;9.058;2024-03-02T06:43:25;3.00;99.90
7411;DHT22;3747;48.628;9.058;2024-03-02T06:45:52;3.10;99.90
7411;DHT22;3747;48.628;9.058;2024-03-02T06:48:19;3.10;99.90
7411;DHT22;3747;48.628;9.058;2024-03-02T06:50:46;3.20;99.90
7411;DHT22;3747;48.628;9.058;2024-03-02T06:53:13;3.20;99.90
7411;DHT22;3747;48.628;9.058;2024-03-02T06:55:42;3.20;99.90
7411;DHT22;3747;48.628;9.058;2024-03-02T06:58:11;3.30;99.90
7411;DHT22;3747;48.628;9.058;2024-03-02T07:00:37;3.40;99.90
7411;DHT22;3747;48.628;9.058;2024-03-02T07:03:04;3.40;99.90
7411;DHT22;3747;48.628;9.058;2024-03-02T07:05:31;3.40;99.90
7411;DHT22;3747;48.628;9.058;2024-03-02T07:07:58;3.50;99.90
7411;DHT22;3747;48.628;9.058;2024-03-02T07:10:24;3.50;99.90
7411;DHT22;3747;48.628;9.058;2024-03-02T07:12:51;3.60;99.90
7411;DHT22;3747;48.628;9.058;2024-03-02T07:15:20;3.70;99.90
7411;DHT22;3747;48.628;9.058;2024-03-02T07:18:09;3.80;99.90
7411;DHT22;3747;48.628;9.058;2024-03-02T07:20:36;4.00;99.90
7411;DHT22;3747;48.628;9.058;2024-03-02T07:23:04;4.00;99.90
7411;DHT22;3747;48.628;9.058;2024-03-02T07:25:31;4.00;99.90
7411;DHT22;3747;48.628;9.058;2024-03-02T07:27:58;4.10;99.90
7411;DHT22;3747;48.628;9.058;2024-03-02T07:30:26;4.10;99.90
7411;DHT22;3747;48.628;9.058;2024-03-02T07:32:52;4.10;99.90
7411;DHT22;3747;48.628;9.058;2024-03-02T07:35:19;4.10;99.90
7411;DHT22;3747;48.628;9.058;2024-03-02T07:37:47;4.20;99.90
7411;DHT22;3747;48.628;9.058;2024-03-02T07:40:14;4.20;99.90
7411;DHT22;3747;48.628;9.058;2024-03-02T07:42:40;4.20;99.90
7411;DHT22;3747;48.628;9.058;2024-03-02T07:45:08;4.30;99.90
7411;DHT22;3747;48.628;9.058;2024-03-02T07:47:36;4.30;99.90
7411;DHT22;3747;48.628;9.058;2024-03-02T07:50:03;4.40;99.90
7411;DHT22;3747;48.628;9.058;2024-03-02T07:52:31;4.40;99.90
7411;DHT22;3747;48.628;9.058;2024-03-02T07:54:58;4.40;99.90
7411;DHT22;3747;48.628;9.058;2024-03-02T07:57:25;4.50;99.90
7411;DHT22;3747;48.628;9.058;2024-03-02T07:59:52;4.70;99.90
7411;DHT22;3747;48.628;9.058;2024-03-02T08:02:18;4.90;99.90
7411;DHT22;3747;48.628;9.058;2024-03-02T08:04:46;5.10;99.90
7411;DHT22;3747;48.628;9.058;2024-03-02T08:07:13;5.40;99.90
7411;DHT22;3747;48.628;9.058;2024-03-02T08:09:40;5.60;99.90
7411;DHT22;3747;48.628;9.058;2024-03-02T08:12:07;5.80;99.90
7411;DHT22;3747;48.628;9.058;2024-03-02T08:14:34;6.40;99.90
7411;DHT22;3747;48.628;9.058;2024-03-02T08:17:00;6.90;99.90
7411;DHT22;3747;48.628;9.058;2024-03-02T08:19:28;7.40;99.90
7411;DHT22;3747;48.628;9.058;2024-03-02T08:21:56;7.70;99.90
7411;DHT22;3747;48.628;9.058;2024-03-02T08:24:24;8.20;99.90
7411;DHT22;3747;48.628;9.058;2024-03-02T08:26:51;8.60;99.90
7411;DHT22;3747;48.628;9.058;2024-03-02T08:29:18;8.80;99.90
7411;DHT22;3747;48.628;9.058;2024-03-02T08:31:44;9.20;99.90
7411;DHT22;3747;48.628;9.058;2024-03-02T08:34:11;9.20;99.90
7411;DHT22;3747;48.628;9.058;2024-03-02T08:36:38;9.70;99.90
7411;DHT22;3747;48.628;9.058;2024-03-02T08:39:07;9.80;99.90
7411;DHT22;3747;48.628;9.058;2024-03-02T08:41:40;10.60;99.90
7411;DHT22;3747;48.628;9.058;2024-03-02T08:44:07;11.40;99.90
7411;DHT22;3747;48.628;9.058;2024-03-02T08:46:34;11.70;99.90
7411;DHT22;3747;48.628;9.058;2024-03-02T08:49:01;12.00;99.90
7411;DHT22;3747;48.628;9.058;2024-03-02T08:51:28;12.30;99.90
7411;DHT22;3747;48.628;9.058;2024-03-02T08:53:54;12.40;99.90
7411;DHT22;3747;48.628;9.058;2024-03-02T08:56:22;12.20;99.90
7411;DHT22;3747;48.628;9.058;2024-03-02T08:58:49;12.00;99.90
7411;DHT22;3747;48.628;9.058;2024-03-02T09:01:16;12.30;99.90
7411;DHT22;3747;48.628;9.058;2024-03-02T09:03:43;12.20;99.90
7411;DHT22;3747;48.628;9.058;2024-03-02T09:06:11;12.60;99.90
7411;DHT22;3747;48.628;9.058;2024-03-02T09:08:40;12.30;99.90
7411;DHT22;3747;48.628;9.058;2024-03-02T09:11:07;12.30;99.90
7411;DHT22;3747;48.628;9.058;2024-03-02T09:13:35;12.20;99.90
7411;DHT22;3747;48.628;9.058;2024-03-02T09:16:21;12.60;99.90
7411;DHT22;3747;48.628;9.058;2024-03-02T09:18:48;13.60;99.90
7411;DHT22;3747;48.628;9.058;2024-03-02T09:21:28;13.60;99.90
7411;DHT22;3747;48.628;9.058;2024-03-02T09:23:55;13.60;99.90
7411;DHT22;3747;48.628;9.058;2024-03-02T09:26:22;13.50;99.90
7411;DHT22;3747;48.628;9.058;2024-03-02T09:29:10;13.10;99.90
7411;DHT22;3747;48.628;9.058;2024-03-02T09:31:39;13.40;99.90
7411;DHT22;3747;48.628;9.058;2024-03-02T09:34:06;13.40;99.90
7411;DHT22;3747;48.628;9.058;2024-03-02T09:36:33;13.50;99.90
7411;DHT22;3747;48.628;9.058;2024-03-02T09:38:59;13.50;99.90
7411;DHT22;3747;48.628;9.058;2024-03-02T09:41:26;13.20;99.90
7411;DHT22;3747;48.628;9.058;2024-03-02T09:43:54;12.80;99.90
7411;DHT22;3747;48.628;9.058;2024-03-02T09:46:24;12.00;99.90
7411;DHT22;3747;48.628;9.058;2024-03-02T09:48:51;11.40;99.90
7411;DHT22;3747;48.628;9.058;2024-03-02T09:51:28;11.20;99.90
7411;DHT22;3747;48.628;9.058;2024-03-02T09:53:55;10.90;99.90
7411;DHT22;3747;48.628;9.058;2024-03-02T09:56:22;10.80;99.90
7411;DHT22;3747;48.628;9.058;2024-03-02T09:58:49;10.70;99.90
7411;DHT22;3747;48.628;9.058;2024-03-02T10:01:20;10.60;99.90
7411;DHT22;3747;48.628;9.058;2024-03-02T10:03:48;10.80;99.90
7411;DHT22;3747;48.628;9.058;2024-03-02T10:06:20;10.90;99.90
7411;DHT22;3747;48.628;9.058;2024-03-02T10:08:47;11.10;99.90
7411;DHT22;3747;48.628;9.058;2024-03-02T10:11:26;11.20;99.90
7411;DHT22;3747;48.628;9.058;2024-03-02T10:14:04;11.20;99.90
7411;DHT22;3747;48.628;9.058;2024-03-02T10:16:36;11.20;99.90
7411;DHT22;3747;48.628;9.058;2024-03-02T10:19:17;11.20;99.90
7411;DHT22;3747;48.628;9.058;2024-03-02T10:21:53;11.30;99.90
7411;DHT22;3747;48.628;9.058;2024-03-02T10:24:21;11.50;99.90
7411;DHT22;3747;48.628;9.058;2024-03-02T10:26:48;11.60;99.90
7411;DHT22;3747;48.628;9.058;2024-03-02T10:29:15;11.60;99.90
7411;DHT22;3747;48.628;9.058;2024-03-02T10:31:56;11.70;99.90
7411;DHT22;3747;48.628;9.058;2024-03-02T10:34:25;11.70;99.90
7411;DHT22;3747;48.628;9.058;2024-03-02T10:36:53;11.70;99.90
7411;DHT22;3747;48.628;9.058;2024-03-02T10:39:21;11.70;99.90
7411;DHT22;3747;48.628;9.058;2024-03-02T10:41:49;11.70;99.90
7411;DHT22;3747;48.628;9.058;2024-03-02T10:44:18;11.80;99.90
7411;DHT22;3747;48.628;9.058;2024-03-02T10:46:47;11.80;99.90
7411;DHT22;3747;48.628;9.058;2024-03-02T10:49:15;11.90;99.90
7411;DHT22;3747;48.628;9.058;2024-03-02T10:51:44;12.10;99.90
7411;DHT22;3747;48.628;9.058;2024-03-02T10:54:11;12.20;99.90
7411;DHT22;3747;48.628;9.058;2024-03-02T10:56:39;12.20;99.90
7411;DHT22;3747;48.628;9.058;2024-03-02T10:59:16;12.30;99.90
7411;DHT22;3747;48.628;9.058;2024-03-02T11:01:43;12.40;99.90
7411;DHT22;3747;48.628;9.058;2024-03-02T11:04:13;12.50;99.90
7411;DHT22;3747;48.628;9.058;2024-03-02T11:06:46;12.50;99.90
7411;DHT22;3747;48.628;9.058;2024-03-02T11:09:14;12.60;99.90
7411;DHT22;3747;48.628;9.058;2024-03-02T11:11:43;12.60;99.90
7411;DHT22;3747;48.628;9.058;2024-03-02T11:14:14;12.70;99.90
7411;DHT22;3747;48.628;9.058;2024-03-02T11:16:43;12.70;99.90
7411;DHT22;3747;48.628;9.058;2024-03-02T11:19:12;12.70;99.90
7411;DHT22;3747;48.628;9.058;2024-03-02T11:21:39;12.90;99.90
7411;DHT22;3747;48.628;9.058;2024-03-02T11:24:30;13.00;99.90
7411;DHT22;3747;48.628;9.058;2024-03-02T11:26:59;13.00;99.90
7411;DHT22;3747;48.628;9.058;2024-03-02T11:29:46;13.00;99.90
7411;DHT22;3747;48.628;9.058;2024-03-02T11:32:18;13.00;99.90
7411;DHT22;3747;48.628;9.058;2024-03-02T11:34:46;13.00;99.90
7411;DHT22;3747;48.628;9.058;2024-03-02T11:37:15;13.10;99.90
7411;DHT22;3747;48.628;9.058;2024-03-02T11:39:44;13.20;99.90
7411;DHT22;3747;48.628;9.058;2024-03-02T11:42:12;13.40;99.90
7411;DHT22;3747;48.628;9.058;2024-03-02T11:44:42;13.60;99.90
7411;DHT22;3747;48.628;9.058;2024-03-02T11:47:12;13.80;99.90
7411;DHT22;3747;48.628;9.058;2024-03-02T11:49:41;13.90;99.90
7411;DHT22;3747;48.628;9.058;2024-03-02T11:52:09;14.00;99.90
7411;DHT22;3747;48.628;9.058;2024-03-02T11:54:37;14.20;99.90
7411;DHT22;3747;48.628;9.058;2024-03-02T11:57:07;14.40;99.90
7411;DHT22;3747;48.628;9.058;2024-03-02T11:59:34;14.60;99.90
7411;DHT22;3747;48.628;9.058;2024-03-02T12:02:02;14.80;99.90
7411;DHT22;3747;48.628;9.058;2024-03-02T12:04:29;15.00;99.90
7411;DHT22;3747;48.628;9.058;2024-03-02T12:06:57;15.40;99.90
7411;DHT22;3747;48.628;9.058;2024-03-02T12:09:26;15.60;99.90
7411;DHT22;3747;48.628;9.058;2024-03-02T12:12:03;15.40;99.90
7411;DHT22;3747;48.628;9.058;2024-03-02T12:14:32;15.70;99.90
7411;DHT22;3747;48.628;9.058;2024-03-02T12:16:59;16.20;99.90
7411;DHT22;3747;48.628;9.058;2024-03-02T12:19:26;16.70;99.90
7411;DHT22;3747;48.628;9.058;2024-03-02T12:21:55;17.00;99.90
7411;DHT22;3747;48.628;9.058;2024-03-02T12:24:23;17.10;99.90
7411;DHT22;3747;48.628;9.058;2024-03-02T12:26:50;17.90;99.90
7411;DHT22;3747;48.628;9.058;2024-03-02T12:29:18;18.80;99.90
7411;DHT22;3747;48.628;9.058;2024-03-02T12:31:47;19.70;99.90
7411;DHT22;3747;48.628;9.058;2024-03-02T12:34:15;20.00;99.90
7411;DHT22;3747;48.628;9.058;2024-03-02T12:36:43;19.50;99.90
7411;DHT22;3747;48.628;9.058;2024-03-02T12:39:13;18.80;99.90
7411;DHT22;3747;48.628;9.058;2024-03-02T12:41:40;18.70;99.90
7411;DHT22;3747;48.628;9.058;2024-03-02T12:44:08;19.00;99.90
7411;DHT22;3747;48.628;9.058;2024-03-02T12:46:35;19.20;99.90
7411;DHT22;3747;48.628;9.058;2024-03-02T12:49:08;19.50;99.50
7411;DHT22;3747;48.628;9.058;2024-03-02T12:51:36;20.00;99.10
7411;DHT22;3747;48.628;9.058;2024-03-02T12:54:03;20.10;98.40
7411;DHT22;3747;48.628;9.058;2024-03-02T12:56:31;19.70;98.30
7411;DHT22;3747;48.628;9.058;2024-03-02T12:58:58;19.40;99.30
7411;DHT22;3747;48.628;9.058;2024-03-02T13:01:25;19.50;98.80
7411;DHT22;3747;48.628;9.058;2024-03-02T13:03:52;19.50;97.90
7411;DHT22;3747;48.628;9.058;2024-03-02T13:06:21;19.80;97.60
7411;DHT22;3747;48.628;9.058;2024-03-02T13:08:49;20.30;97.30
7411;DHT22;3747;48.628;9.058;2024-03-02T13:11:16;20.20;96.80
7411;DHT22;3747;48.628;9.058;2024-03-02T13:13:43;20.30;95.50
7411;DHT22;3747;48.628;9.058;2024-03-02T13:16:10;19.80;95.50
7411;DHT22;3747;48.628;9.058;2024-03-02T13:18:38;20.10;96.20
7411;DHT22;3747;48.628;9.058;2024-03-02T13:21:05;20.60;95.50
7411;DHT22;3747;48.628;9.058;2024-03-02T13:23:34;20.70;94.90
7411;DHT22;3747;48.628;9.058;2024-03-02T13:26:13;21.00;95.00
7411;DHT22;3747;48.628;9.058;2024-03-02T13:28:40;20.70;94.60
7411;DHT22;3747;48.628;9.058;2024-03-02T13:31:07;21.20;93.80
7411;DHT22;3747;48.628;9.058;2024-03-02T13:33:34;21.00;93.40
7411;DHT22;3747;48.628;9.058;2024-03-02T13:36:01;21.20;93.00
7411;DHT22;3747;48.628;9.058;2024-03-02T13:38:28;21.60;92.20
7411;DHT22;3747;48.628;9.058;2024-03-02T13:40:56;21.30;92.20
7411;DHT22;3747;48.628;9.058;2024-03-02T13:43:23;21.50;91.90
7411;DHT22;3747;48.628;9.058;2024-03-02T13:45:59;21.20;92.10
7411;DHT22;3747;48.628;9.058;2024-03-02T13:48:26;21.50;91.80
7411;DHT22;3747;48.628;9.058;2024-03-02T13:50:52;20.70;91.40
7411;DHT22;3747;48.628;9.058;2024-03-02T13:53:19;20.00;92.10
7411;DHT22;3747;48.628;9.058;2024-03-02T13:55:46;19.10;93.20
7411;DHT22;3747;48.628;9.058;2024-03-02T13:58:14;19.30;93.80
7411;DHT22;3747;48.628;9.058;2024-03-02T14:00:41;19.50;93.50
7411;DHT22;3747;48.628;9.058;2024-03-02T14:03:08;19.00;93.20
7411;DHT22;3747;48.628;9.058;2024-03-02T14:05:35;18.30;94.00
7411;DHT22;3747;48.628;9.058;2024-03-02T14:08:02;17.40;95.00
7411;DHT22;3747;48.628;9.058;2024-03-02T14:10:29;16.30;95.60
7411;DHT22;3747;48.628;9.058;2024-03-02T14:12:56;15.50;96.40
7411;DHT22;3747;48.628;9.058;2024-03-02T14:15:24;15.40;97.60
7411;DHT22;3747;48.628;9.058;2024-03-02T14:17:51;16.10;97.20
7411;DHT22;3747;48.628;9.058;2024-03-02T14:20:23;16.80;96.40
7411;DHT22;3747;48.628;9.058;2024-03-02T14:22:50;17.40;95.70
7411;DHT22;3747;48.628;9.058;2024-03-02T14:25:17;18.00;96.10
7411;DHT22;3747;48.628;9.058;2024-03-02T14:27:44;18.70;95.80
7411;DHT22;3747;48.628;9.058;2024-03-02T14:30:13;18.60;94.70
7411;DHT22;3747;48.628;9.058;2024-03-02T14:33:05;18.30;94.60
7411;DHT22;3747;48.628;9.058;2024-03-02T14:35:32;17.90;94.50
7411;DHT22;3747;48.628;9.058;2024-03-02T14:37:59;18.10;94.70
7411;DHT22;3747;48.628;9.058;2024-03-02T14:40:25;19.00;94.50
7411;DHT22;3747;48.628;9.058;2024-03-02T14:43:01;19.40;94.00
7411;DHT22;3747;48.628;9.058;2024-03-02T14:45:29;18.50;93.90
7411;DHT22;3747;48.628;9.058;2024-03-02T14:47:56;18.00;93.80
7411;DHT22;3747;48.628;9.058;2024-03-02T14:50:26;18.30;93.90
7411;DHT22;3747;48.628;9.058;2024-03-02T14:52:53;18.80;94.20
7411;DHT22;3747;48.628;9.058;2024-03-02T14:55:21;19.10;93.60
7411;DHT22;3747;48.628;9.058;2024-03-02T14:57:48;19.40;93.20
7411;DHT22;3747;48.628;9.058;2024-03-02T15:00:15;19.40;92.80
7411;DHT22;3747;48.628;9.058;2024-03-02T15:02:41;19.50;93.90
7411;DHT22;3747;48.628;9.058;2024-03-02T15:05:09;19.30;93.50
7411;DHT22;3747;48.628;9.058;2024-03-02T15:07:37;19.00;93.80
7411;DHT22;3747;48.628;9.058;2024-03-02T15:10:04;18.40;94.30
7411;DHT22;3747;48.628;9.058;2024-03-02T15:12:31;17.50;94.60
7411;DHT22;3747;48.628;9.058;2024-03-02T15:14:58;16.90;94.40
7411;DHT22;3747;48.628;9.058;2024-03-02T15:17:25;16.20;94.20
7411;DHT22;3747;48.628;9.058;2024-03-02T15:19:57;16.00;94.40
7411;DHT22;3747;48.628;9.058;2024-03-02T15:22:24;15.30;94.90
7411;DHT22;3747;48.628;9.058;2024-03-02T15:24:52;14.90;95.60
7411;DHT22;3747;48.628;9.058;2024-03-02T15:27:19;14.50;96.00
7411;DHT22;3747;48.628;9.058;2024-03-02T15:29:46;14.20;96.50
7411;DHT22;3747;48.628;9.058;2024-03-02T15:32:13;14.00;97.30
7411;DHT22;3747;48.628;9.058;2024-03-02T15:34:40;13.90;97.50
7411;DHT22;3747;48.628;9.058;2024-03-02T15:37:08;13.70;97.60
7411;DHT22;3747;48.628;9.058;2024-03-02T15:39:35;13.60;97.80
7411;DHT22;3747;48.628;9.058;2024-03-02T15:42:03;13.40;98.30
7411;DHT22;3747;48.628;9.058;2024-03-02T15:44:30;13.30;98.40
7411;DHT22;3747;48.628;9.058;2024-03-02T15:47:16;13.30;98.40
7411;DHT22;3747;48.628;9.058;2024-03-02T15:49:42;13.20;98.40
7411;DHT22;3747;48.628;9.058;2024-03-02T15:52:10;13.10;98.60
7411;DHT22;3747;48.628;9.058;2024-03-02T15:54:38;13.10;98.60
7411;DHT22;3747;48.628;9.058;2024-03-02T15:57:06;13.00;98.00
7411;DHT22;3747;48.628;9.058;2024-03-02T15:59:33;12.90;97.70
7411;DHT22;3747;48.628;9.058;2024-03-02T16:02:00;12.80;96.80
7411;DHT22;3747;48.628;9.058;2024-03-02T16:04:26;12.70;97.20
7411;DHT22;3747;48.628;9.058;2024-03-02T16:06:53;12.60;97.00
7411;DHT22;3747;48.628;9.058;2024-03-02T16:09:20;12.50;97.10
7411;DHT22;3747;48.628;9.058;2024-03-02T16:11:46;12.40;96.30
7411;DHT22;3747;48.628;9.058;2024-03-02T16:14:15;12.40;96.10
7411;DHT22;3747;48.628;9.058;2024-03-02T16:16:41;12.30;96.50